Time;durP1;ratioP1;P1;durP2;ratioP2;P2;SDS_P1;SDS_P2;PMS_P1;PMS_P2;Temp;Humidity;BMP_temperature;BMP_pressure;BME280_temperature;BME280_humidity;BME280_pressure;Samples;Min_cycle;Max_cycle;Signal;HPM_P1;HPM_P2
2022/02/23 00:02:05;;;;;;;7.88;1.90;;;;;;;;;;5015292;28;20034;-69
2022/02/23 00:04:33;;;;;;;4.43;1.65;;;;;;;;;;5015102;28;20124;-70
2022/02/23 00:07:00;;;;;;;7.53;2.10;;;;;;;;;;5015231;28;20117;-72
2022/02/23 00:09:28;;;;;;;7.50;1.77;;;;;;;;;;5013941;28;20042;-70
2022/02/23 00:11:55;;;;;;;7.68;1.98;;;;;;;;;;4997377;28;20081;-71
2022/02/23 00:14:23;;;;;;;11.18;2.20;;;;;;;;;;5013939;28;20180;-70
2022/02/23 00:16:50;;;;;;;9.02;1.55;;;;;;;;;;5014744;28;20044;-70
2022/02/23 00:19:18;;;;;;;6.35;1.75;;;;;;;;;;5014622;28;20128;-72
2022/02/23 00:21:45;;;;;;;9.35;1.70;;;;;;;;;;5015404;28;20048;-69
2022/02/23 00:24:14;;;;;;;7.82;1.30;;;;;;;;;;4996957;28;20046;-70
2022/02/23 00:26:44;;;;;;;7.13;1.27;;;;;;;;;;5014650;28;20093;-70
2022/02/23 00:29:11;;;;;;;5.63;1.55;;;;;;;;;;5029858;28;20046;-70
2022/02/23 00:31:39;;;;;;;8.75;1.65;;;;;;;;;;5013978;28;20046;-72
2022/02/23 00:34:06;;;;;;;4.35;1.17;;;;;;;;;;5014521;28;20130;-72
2022/02/23 00:36:34;;;;;;;6.00;1.30;;;;;;;;;;5014680;28;20064;-72
2022/02/23 00:39:02;;;;;;;5.55;0.93;;;;;;;;;;5014282;28;20034;-70
2022/02/23 00:41:30;;;;;;;7.97;1.80;;;;;;;;;;5014761;28;20386;-70
2022/02/23 00:43:57;;;;;;;4.15;1.27;;;;;;;;;;5014091;28;20033;-73
2022/02/23 00:46:25;;;;;;;5.60;0.80;;;;;;;;;;5014229;28;20044;-70
2022/02/23 00:48:55;;;;;;;3.53;1.25;;;;;;;;;;5014522;28;20048;-71
2022/02/23 00:51:26;;;;;;;5.25;0.90;;;;;;;;;;5012783;28;20132;-70
2022/02/23 00:53:53;;;;;;;5.75;1.00;;;;;;;;;;5014203;28;20050;-72
2022/02/23 00:56:21;;;;;;;4.15;1.23;;;;;;;;;;5029430;28;20050;-70
2022/02/23 00:58:48;;;;;;;8.73;1.35;;;;;;;;;;5012809;28;20034;-73
2022/02/23 01:01:16;;;;;;;4.82;1.20;;;;;;;;;;5014643;28;20041;-70
2022/02/23 01:03:44;;;;;;;2.13;1.00;;;;;;;;;;5029543;28;20508;-73
2022/02/23 01:06:11;;;;;;;2.55;1.10;;;;;;;;;;5012530;28;20047;-71
2022/02/23 01:08:39;;;;;;;6.75;1.10;;;;;;;;;;5028995;28;20042;-70
2022/02/23 01:11:06;;;;;;;4.60;1.02;;;;;;;;;;5013942;28;20552;-71
2022/02/23 01:13:34;;;;;;;2.28;0.88;;;;;;;;;;5014117;28;20049;-70
2022/02/23 01:16:01;;;;;;;4.60;0.93;;;;;;;;;;5013335;28;20409;-70
2022/02/23 01:18:29;;;;;;;3.90;1.00;;;;;;;;;;5029061;28;20116;-70
2022/02/23 01:20:58;;;;;;;4.90;1.40;;;;;;;;;;5013795;28;20037;-70
2022/02/23 01:23:26;;;;;;;4.38;1.48;;;;;;;;;;5012547;28;20046;-72
2022/02/23 01:25:54;;;;;;;4.85;1.27;;;;;;;;;;4996185;28;20053;-72
2022/02/23 01:28:22;;;;;;;4.57;1.20;;;;;;;;;;5013774;28;20069;-70
2022/02/23 01:30:50;;;;;;;9.70;1.25;;;;;;;;;;5028814;28;20046;-70
2022/02/23 01:33:17;;;;;;;5.35;0.95;;;;;;;;;;5012274;28;20052;-69
2022/02/23 01:35:45;;;;;;;2.97;1.00;;;;;;;;;;5012731;28;20402;-70
2022/02/23 01:38:15;;;;;;;5.75;1.25;;;;;;;;;;5028321;28;20046;-70
2022/02/23 01:40:45;;;;;;;6.03;1.17;;;;;;;;;;5013836;28;20038;-70
2022/02/23 01:43:13;;;;;;;4.55;1.30;;;;;;;;;;5012245;28;20044;-70
2022/02/23 01:45:40;;;;;;;2.10;1.00;;;;;;;;;;5013025;28;20038;-73
2022/02/23 01:48:08;;;;;;;7.93;1.40;;;;;;;;;;5011903;28;20116;-72
2022/02/23 01:50:35;;;;;;;4.90;1.25;;;;;;;;;;5013211;28;20046;-70
2022/02/23 01:53:06;;;;;;;6.20;1.10;;;;;;;;;;5013145;28;20053;-73
2022/02/23 01:55:35;;;;;;;3.63;0.95;;;;;;;;;;5011891;28;20073;-70
2022/02/23 01:58:04;;;;;;;4.70;1.05;;;;;;;;;;5011362;28;20514;-70
2022/02/23 02:00:31;;;;;;;2.92;0.88;;;;;;;;;;5013050;28;20046;-70
2022/02/23 02:02:59;;;;;;;5.43;0.90;;;;;;;;;;5013063;28;20034;-71
2022/02/23 02:05:27;;;;;;;3.85;1.20;;;;;;;;;;5012886;28;20410;-70
2022/02/23 02:07:54;;;;;;;4.47;1.20;;;;;;;;;;5011716;28;20056;-70
2022/02/23 02:10:22;;;;;;;6.40;1.17;;;;;;;;;;5011682;28;20048;-72
2022/02/23 02:12:49;;;;;;;4.20;1.17;;;;;;;;;;5013210;28;20064;-70
2022/02/23 02:15:17;;;;;;;9.57;1.52;;;;;;;;;;5012045;28;20073;-70
2022/02/23 02:17:44;;;;;;;4.35;1.23;;;;;;;;;;5012803;28;20053;-70
2022/02/23 02:20:14;;;;;;;4.32;1.15;;;;;;;;;;5012693;28;20038;-69
2022/02/23 02:22:42;;;;;;;4.45;1.50;;;;;;;;;;5012949;28;20038;-72
2022/02/23 02:25:09;;;;;;;4.10;0.95;;;;;;;;;;5012639;28;20088;-70
2022/02/23 02:27:37;;;;;;;4.70;1.10;;;;;;;;;;5013040;28;20077;-69
2022/02/23 02:30:05;;;;;;;5.50;1.35;;;;;;;;;;5012705;28;20046;-69
2022/02/23 02:32:32;;;;;;;4.00;0.85;;;;;;;;;;5012497;28;20045;-70
2022/02/23 02:35:00;;;;;;;3.95;1.20;;;;;;;;;;5011443;28;20069;-72
2022/02/23 02:37:27;;;;;;;5.82;0.98;;;;;;;;;;5012995;28;20042;-69
2022/02/23 02:39:55;;;;;;;4.22;1.05;;;;;;;;;;5012526;28;20048;-70
2022/02/23 02:42:23;;;;;;;9.82;1.27;;;;;;;;;;5011427;28;20044;-73
2022/02/23 02:44:51;;;;;;;7.97;1.45;;;;;;;;;;5027401;28;20489;-70
2022/02/23 02:47:21;;;;;;;3.85;1.08;;;;;;;;;;5012394;28;20456;-70
2022/02/23 02:49:49;;;;;;;4.20;1.08;;;;;;;;;;5012214;28;20068;-70
2022/02/23 02:52:16;;;;;;;5.15;1.10;;;;;;;;;;5015751;28;20042;-70
2022/02/23 02:54:44;;;;;;;5.00;0.80;;;;;;;;;;5016731;28;20519;-70
2022/02/23 02:57:11;;;;;;;2.53;0.80;;;;;;;;;;5016679;28;20052;-70
2022/02/23 02:59:39;;;;;;;3.80;1.17;;;;;;;;;;5015438;28;20033;-70
2022/02/23 03:02:07;;;;;;;5.93;0.80;;;;;;;;;;5031707;28;20046;-70
2022/02/23 03:04:34;;;;;;;9.45;1.17;;;;;;;;;;5015092;28;20049;-70
2022/02/23 03:07:02;;;;;;;2.83;0.90;;;;;;;;;;5014644;28;20042;-72
2022/02/23 03:09:29;;;;;;;3.53;0.88;;;;;;;;;;5016024;28;20038;-71
2022/02/23 03:11:57;;;;;;;5.75;0.90;;;;;;;;;;5015097;28;20133;-72
2022/02/23 03:14:25;;;;;;;7.03;0.98;;;;;;;;;;5014597;28;20049;-70
2022/02/23 03:16:53;;;;;;;6.65;1.27;;;;;;;;;;5031000;28;20037;-69
2022/02/23 03:19:20;;;;;;;4.50;0.90;;;;;;;;;;5015937;28;20041;-70
2022/02/23 03:21:48;;;;;;;5.50;1.00;;;;;;;;;;5015975;28;20034;-70
2022/02/23 03:24:15;;;;;;;2.47;0.80;;;;;;;;;;5015768;28;20117;-70
2022/02/23 03:26:43;;;;;;;3.83;0.80;;;;;;;;;;5014784;28;20404;-73
2022/02/23 03:29:10;;;;;;;4.55;0.90;;;;;;;;;;5015641;28;20409;-72
2022/02/23 03:31:37;;;;;;;6.57;1.00;;;;;;;;;;5015479;28;20405;-73
2022/02/23 03:34:05;;;;;;;5.20;0.90;;;;;;;;;;5014322;28;20049;-72
2022/02/23 03:36:34;;;;;;;4.80;1.00;;;;;;;;;;5030808;28;20046;-70
2022/02/23 03:39:02;;;;;;;3.30;1.15;;;;;;;;;;5015304;28;20042;-70
2022/02/23 03:41:29;;;;;;;6.25;1.35;;;;;;;;;;5014162;28;20394;-70
2022/02/23 03:44:02;;;;;;;3.47;0.98;;;;;;;;;;4998695;28;20046;-70
2022/02/23 03:46:30;;;;;;;5.75;1.02;;;;;;;;;;5014327;28;20050;-70
2022/02/23 03:48:58;;;;;;;4.43;1.10;;;;;;;;;;5014231;28;20042;-70
2022/02/23 03:51:25;;;;;;;1.83;1.05;;;;;;;;;;5015510;28;20052;-70
2022/02/23 03:53:52;;;;;;;3.75;0.80;;;;;;;;;;5013842;28;20049;-69
2022/02/23 03:56:38;;;;;;;3.53;0.95;;;;;;;;;;5015244;28;20117;-72
2022/02/23 03:59:08;;;;;;;6.40;1.40;;;;;;;;;;5015676;28;20409;-70
2022/02/23 04:01:36;;;;;;;6.57;1.50;;;;;;;;;;5014568;28;20045;-73
2022/02/23 04:04:11;;;;;;;5.53;1.30;;;;;;;;;;5015102;28;20129;-70
2022/02/23 04:06:38;;;;;;;4.60;1.08;;;;;;;;;;5014191;28;20042;-69
2022/02/23 04:09:07;;;;;;;4.80;1.75;;;;;;;;;;5015171;28;20034;-72
2022/02/23 04:11:35;;;;;;;9.13;2.03;;;;;;;;;;5014026;28;20497;-70
2022/02/23 04:14:03;;;;;;;3.22;1.30;;;;;;;;;;5030372;28;20046;-70
2022/02/23 04:16:31;;;;;;;4.75;1.35;;;;;;;;;;5015455;28;20034;-70
2022/02/23 04:18:58;;;;;;;7.72;1.65;;;;;;;;;;5013582;28;20061;-70
2022/02/23 04:21:26;;;;;;;3.03;1.40;;;;;;;;;;5014513;28;20038;-70
2022/02/23 04:23:53;;;;;;;8.48;1.80;;;;;;;;;;5014693;28;20037;-71
2022/02/23 04:26:21;;;;;;;4.90;1.30;;;;;;;;;;5014643;28;20046;-69
2022/02/23 04:28:49;;;;;;;4.88;1.80;;;;;;;;;;5014906;28;20049;-69
2022/02/23 04:31:22;;;;;;;6.93;1.67;;;;;;;;;;5013584;28;20050;-70
2022/02/23 04:33:50;;;;;;;8.90;2.42;;;;;;;;;;5013126;28;20042;-70
2022/02/23 04:36:19;;;;;;;3.85;1.90;;;;;;;;;;5013564;28;20037;-70
2022/02/23 04:38:47;;;;;;;2.15;1.10;;;;;;;;;;5014995;28;20062;-70
2022/02/23 04:41:14;;;;;;;4.75;1.42;;;;;;;;;;5014976;28;20490;-72
2022/02/23 04:43:42;;;;;;;5.25;1.38;;;;;;;;;;5014331;28;20404;-73
2022/02/23 04:46:13;;;;;;;2.58;1.35;;;;;;;;;;5012975;28;20091;-70
2022/02/23 04:48:42;;;;;;;4.28;1.13;;;;;;;;;;5013408;28;20440;-69
2022/02/23 04:51:09;;;;;;;3.97;1.95;;;;;;;;;;5013601;28;20129;-70
2022/02/23 04:53:37;;;;;;;5.25;1.35;;;;;;;;;;5016239;28;20048;-72
2022/02/23 04:56:06;;;;;;;5.03;1.10;;;;;;;;;;5014371;28;20053;-73
2022/02/23 04:58:33;;;;;;;3.60;0.85;;;;;;;;;;5012577;28;20077;-69
2022/02/23 05:01:01;;;;;;;8.73;1.40;;;;;;;;;;5012655;28;20048;-70
2022/02/23 05:03:29;;;;;;;4.03;1.05;;;;;;;;;;5012780;28;20084;-69
2022/02/23 05:05:59;;;;;;;4.25;1.10;;;;;;;;;;4996813;28;20044;-70
2022/02/23 05:08:27;;;;;;;4.95;1.13;;;;;;;;;;5012185;28;20471;-72
2022/02/23 05:10:57;;;;;;;8.68;1.05;;;;;;;;;;5013895;28;20052;-70
2022/02/23 05:13:26;;;;;;;8.00;1.35;;;;;;;;;;5011829;28;20413;-72
2022/02/23 05:15:56;;;;;;;3.03;0.77;;;;;;;;;;5014474;28;20124;-73
2022/02/23 05:18:29;;;;;;;4.20;0.82;;;;;;;;;;5012001;28;20080;-70
2022/02/23 05:20:58;;;;;;;7.40;2.33;;;;;;;;;;5012423;28;20119;-69
2022/02/23 05:23:25;;;;;;;4.00;0.93;;;;;;;;;;4996367;28;20044;-72
2022/02/23 05:25:53;;;;;;;3.83;1.10;;;;;;;;;;5012373;28;20489;-72
2022/02/23 05:28:21;;;;;;;6.68;1.20;;;;;;;;;;5013741;28;20038;-70
2022/02/23 05:30:48;;;;;;;3.28;1.20;;;;;;;;;;5013575;28;20073;-71
2022/02/23 05:33:16;;;;;;;4.53;1.02;;;;;;;;;;5013692;28;20046;-72
2022/02/23 05:35:44;;;;;;;7.72;1.65;;;;;;;;;;5013659;28;20034;-70
2022/02/23 05:38:12;;;;;;;6.68;1.13;;;;;;;;;;5012422;28;20065;-70
2022/02/23 05:40:42;;;;;;;4.28;0.85;;;;;;;;;;5012082;28;20042;-73
2022/02/23 05:43:09;;;;;;;4.68;1.02;;;;;;;;;;5012000;28;20048;-70
2022/02/23 05:45:37;;;;;;;7.65;1.23;;;;;;;;;;5013225;28;20052;-69
2022/02/23 05:48:05;;;;;;;2.38;1.50;;;;;;;;;;5032256;28;20033;-72
2022/02/23 05:50:32;;;;;;;5.85;1.90;;;;;;;;;;5027423;28;20054;-70
2022/02/23 05:52:59;;;;;;;15.90;2.17;;;;;;;;;;5011971;28;20042;-70
2022/02/23 05:55:27;;;;;;;4.90;1.40;;;;;;;;;;5012067;28;20049;-72
2022/02/23 05:57:57;;;;;;;7.05;1.70;;;;;;;;;;5012695;28;20531;-70
2022/02/23 06:00:24;;;;;;;5.03;1.33;;;;;;;;;;5013080;28;20037;-70
2022/02/23 06:02:52;;;;;;;5.53;1.45;;;;;;;;;;5012824;28;20117;-70
2022/02/23 06:05:22;;;;;;;6.18;1.23;;;;;;;;;;5012974;28;20149;-73
2022/02/23 06:07:50;;;;;;;5.10;1.27;;;;;;;;;;5011437;28;20045;-71
2022/02/23 06:10:18;;;;;;;6.03;1.15;;;;;;;;;;5012933;28;20053;-70
2022/02/23 06:12:45;;;;;;;5.13;1.65;;;;;;;;;;5027630;28;20050;-70
2022/02/23 06:15:21;;;;;;;2.22;0.93;;;;;;;;;;5028228;28;20080;-71
2022/02/23 06:17:51;;;;;;;4.28;1.23;;;;;;;;;;5012879;28;20052;-70
2022/02/23 06:20:18;;;;;;;3.00;1.00;;;;;;;;;;5012667;28;20080;-72
2022/02/23 06:22:46;;;;;;;5.10;1.00;;;;;;;;;;5012734;28;20097;-71
2022/02/23 06:25:14;;;;;;;3.83;1.52;;;;;;;;;;5011738;28;20046;-70
2022/02/23 06:27:43;;;;;;;5.90;1.33;;;;;;;;;;5030738;28;20041;-70
2022/02/23 06:30:11;;;;;;;5.05;1.30;;;;;;;;;;5020536;28;20060;-69
2022/02/23 06:32:39;;;;;;;5.10;1.35;;;;;;;;;;5011245;28;20128;-70
2022/02/23 06:35:06;;;;;;;6.30;1.35;;;;;;;;;;5011862;28;20497;-70
2022/02/23 06:37:34;;;;;;;9.30;1.65;;;;;;;;;;5012745;28;20053;-71
2022/02/23 06:40:02;;;;;;;4.35;2.00;;;;;;;;;;5012943;28;20042;-70
2022/02/23 06:42:29;;;;;;;8.95;2.03;;;;;;;;;;5013980;28;20481;-70
2022/02/23 06:44:57;;;;;;;3.88;1.30;;;;;;;;;;5018365;28;20045;-71
2022/02/23 06:47:25;;;;;;;5.72;1.85;;;;;;;;;;5012385;28;20108;-71
2022/02/23 06:49:53;;;;;;;7.47;1.63;;;;;;;;;;5027594;28;20049;-73
2022/02/23 06:52:23;;;;;;;6.15;1.70;;;;;;;;;;5027369;28;20046;-73
2022/02/23 06:54:51;;;;;;;5.30;2.13;;;;;;;;;;5012001;28;20378;-71
2022/02/23 06:57:18;;;;;;;6.32;1.52;;;;;;;;;;5012219;28;20042;-71
2022/02/23 06:59:46;;;;;;;6.68;1.55;;;;;;;;;;5011939;28;20370;-72
2022/02/23 07:02:14;;;;;;;5.47;1.20;;;;;;;;;;5012052;28;20052;-71
2022/02/23 07:04:42;;;;;;;7.22;1.25;;;;;;;;;;5012307;28;20038;-71
2022/02/23 07:07:10;;;;;;;3.08;1.50;;;;;;;;;;5012191;28;20038;-73
2022/02/23 07:09:37;;;;;;;9.38;1.80;;;;;;;;;;5010617;28;20045;-71
2022/02/23 07:12:09;;;;;;;10.05;3.25;;;;;;;;;;5012427;28;20045;-72
2022/02/23 07:14:36;;;;;;;6.10;2.45;;;;;;;;;;5010840;28;20401;-70
2022/02/23 07:17:04;;;;;;;8.10;3.35;;;;;;;;;;5011964;28;20052;-74
2022/02/23 07:19:35;;;;;;;7.57;3.13;;;;;;;;;;5012226;28;20077;-73
2022/02/23 07:22:04;;;;;;;5.07;2.63;;;;;;;;;;5011841;28;20112;-70
2022/02/23 07:24:32;;;;;;;7.45;2.35;;;;;;;;;;5110164;22;20057;-71
2022/02/23 07:27:00;;;;;;;8.43;2.05;;;;;;;;;;5051902;28;20044;-72
2022/02/23 07:29:27;;;;;;;2.83;1.52;;;;;;;;;;5051795;28;20043;-69
2022/02/23 07:31:55;;;;;;;4.40;1.63;;;;;;;;;;5051655;28;20140;-72
2022/02/23 07:34:22;;;;;;;16.85;2.08;;;;;;;;;;5051451;28;20037;-69
2022/02/23 07:36:51;;;;;;;5.50;1.58;;;;;;;;;;5052526;28;20045;-73
2022/02/23 07:39:18;;;;;;;4.22;1.58;;;;;;;;;;5053007;28;20053;-72
2022/02/23 07:41:46;;;;;;;5.40;1.60;;;;;;;;;;5055136;28;20056;-72
2022/02/23 07:44:33;;;;;;;6.00;1.75;;;;;;;;;;5053581;28;20041;-72
2022/02/23 07:47:01;;;;;;;5.72;1.70;;;;;;;;;;5055059;28;20037;-69
2022/02/23 07:49:28;;;;;;;7.50;2.00;;;;;;;;;;5054920;28;20496;-72
2022/02/23 07:51:56;;;;;;;8.13;2.45;;;;;;;;;;5055151;28;20048;-72
2022/02/23 07:54:25;;;;;;;9.70;2.10;;;;;;;;;;5055227;28;20124;-69
2022/02/23 07:56:53;;;;;;;5.75;2.30;;;;;;;;;;5054524;28;20192;-71
2022/02/23 07:59:21;;;;;;;10.07;2.25;;;;;;;;;;5055181;28;20144;-71
2022/02/23 08:01:49;;;;;;;5.10;1.48;;;;;;;;;;5055381;28;20033;-74
2022/02/23 08:04:17;;;;;;;11.10;1.63;;;;;;;;;;5053521;28;20430;-74
2022/02/23 08:06:47;;;;;;;5.22;1.42;;;;;;;;;;5055186;28;20051;-70
2022/02/23 08:09:14;;;;;;;5.45;1.60;;;;;;;;;;5054790;28;20571;-70
2022/02/23 08:11:42;;;;;;;3.10;1.13;;;;;;;;;;5054906;28;20037;-73
2022/02/23 08:14:10;;;;;;;7.55;1.42;;;;;;;;;;5054688;28;20129;-70
2022/02/23 08:19:36;;;;;;;5.07;1.25;;;;;;;;;;5054597;28;20041;-71
2022/02/23 08:22:07;;;;;;;6.72;1.88;;;;;;;;;;5054339;28;20503;-74
2022/02/23 08:24:37;;;;;;;6.15;1.60;;;;;;;;;;5053422;28;20053;-74
2022/02/23 08:27:07;;;;;;;8.35;1.50;;;;;;;;;;5054583;28;20045;-74
2022/02/23 08:29:35;;;;;;;6.63;1.55;;;;;;;;;;5054613;28;20147;-73
2022/02/23 08:32:05;;;;;;;7.45;1.88;;;;;;;;;;5054777;28;20045;-70
2022/02/23 08:34:32;;;;;;;3.78;1.40;;;;;;;;;;5054187;28;20060;-72
2022/02/23 08:37:00;;;;;;;5.90;1.17;;;;;;;;;;5052975;28;20078;-74
2022/02/23 08:39:28;;;;;;;4.43;1.48;;;;;;;;;;5054149;28;20508;-68
2022/02/23 08:41:55;;;;;;;4.45;1.35;;;;;;;;;;5054055;28;20047;-68
2022/02/23 08:44:22;;;;;;;6.70;1.48;;;;;;;;;;5054219;28;20096;-71
2022/02/23 08:46:50;;;;;;;5.28;1.30;;;;;;;;;;5054249;28;20052;-73
2022/02/23 08:49:18;;;;;;;3.22;1.17;;;;;;;;;;5054079;28;20045;-74
2022/02/23 08:51:46;;;;;;;2.75;1.30;;;;;;;;;;5054084;28;20071;-71
2022/02/23 08:54:15;;;;;;;4.15;1.13;;;;;;;;;;5053006;28;20059;-71
2022/02/23 08:56:43;;;;;;;6.43;1.50;;;;;;;;;;5053505;28;20044;-69
2022/02/23 08:59:10;;;;;;;6.13;1.50;;;;;;;;;;5053346;28;20053;-68
2022/02/23 09:01:38;;;;;;;4.50;1.30;;;;;;;;;;5052275;28;20045;-68
2022/02/23 09:04:06;;;;;;;7.43;1.50;;;;;;;;;;5053690;28;20037;-71
2022/02/23 09:06:39;;;;;;;2.47;1.30;;;;;;;;;;5053478;28;20037;-72
2022/02/23 09:09:08;;;;;;;5.05;1.77;;;;;;;;;;5053671;28;20045;-68
2022/02/23 09:11:36;;;;;;;4.60;1.40;;;;;;;;;;5053483;28;20124;-68
2022/02/23 09:14:08;;;;;;;3.63;1.50;;;;;;;;;;5053322;28;20167;-67
2022/02/23 09:16:35;;;;;;;8.85;1.63;;;;;;;;;;5053512;28;20045;-71
2022/02/23 09:19:04;;;;;;;8.00;1.48;;;;;;;;;;5053352;28;20049;-68
2022/02/23 09:21:31;;;;;;;8.88;1.70;;;;;;;;;;5052969;28;20041;-71
2022/02/23 09:24:02;;;;;;;3.50;1.08;;;;;;;;;;5053327;28;20404;-74
2022/02/23 09:26:29;;;;;;;5.05;1.27;;;;;;;;;;5051871;28;20040;-73
2022/02/23 09:28:57;;;;;;;8.45;1.52;;;;;;;;;;5053442;28;20041;-70
2022/02/23 09:31:25;;;;;;;4.13;1.30;;;;;;;;;;5053366;28;20049;-75
2022/02/23 09:33:54;;;;;;;4.80;1.48;;;;;;;;;;5053078;28;20037;-71
2022/02/23 09:36:24;;;;;;;5.22;1.73;;;;;;;;;;5053346;28;20040;-71
2022/02/23 09:38:51;;;;;;;3.30;1.10;;;;;;;;;;5053206;28;20051;-74
2022/02/23 09:41:21;;;;;;;5.95;1.25;;;;;;;;;;5053078;28;20040;-70
2022/02/23 09:43:52;;;;;;;6.68;1.60;;;;;;;;;;5053470;28;20041;-73
2022/02/23 09:46:24;;;;;;;4.18;1.38;;;;;;;;;;5052552;28;20168;-68
2022/02/23 09:48:53;;;;;;;5.43;1.33;;;;;;;;;;5051579;28;20123;-68
2022/02/23 09:51:21;;;;;;;10.25;2.10;;;;;;;;;;5052989;28;20666;-73
2022/02/23 09:53:55;;;;;;;2.92;1.15;;;;;;;;;;5053093;28;20056;-74
2022/02/23 09:56:22;;;;;;;6.70;1.50;;;;;;;;;;5052678;28;20461;-70
2022/02/23 09:58:53;;;;;;;3.85;1.33;;;;;;;;;;5052641;28;20055;-74
2022/02/23 10:01:23;;;;;;;9.52;1.63;;;;;;;;;;5052525;28;20048;-71
2022/02/23 10:03:51;;;;;;;4.68;1.42;;;;;;;;;;5053145;28;20400;-71
2022/02/23 10:06:27;;;;;;;4.65;1.30;;;;;;;;;;5052605;28;20040;-70
2022/02/23 10:09:08;;;;;;;3.97;1.27;;;;;;;;;;5052649;28;20120;-71
2022/02/23 10:11:36;;;;;;;5.85;1.52;;;;;;;;;;5052690;28;20451;-73
2022/02/23 10:14:04;;;;;;;3.88;1.25;;;;;;;;;;5052761;28;20389;-74
2022/02/23 10:16:35;;;;;;;4.75;1.55;;;;;;;;;;5052557;28;20097;-71
2022/02/23 10:19:06;;;;;;;4.93;1.15;;;;;;;;;;5052719;28;20045;-71
2022/02/23 10:21:55;;;;;;;2.45;1.13;;;;;;;;;;5052564;28;20461;-72
2022/02/23 10:24:25;;;;;;;3.80;1.40;;;;;;;;;;5052480;28;20045;-68
2022/02/23 10:27:02;;;;;;;4.97;1.20;;;;;;;;;;5052669;28;20128;-69
2022/02/23 10:29:34;;;;;;;6.47;1.45;;;;;;;;;;5052185;28;20059;-69
2022/02/23 10:32:06;;;;;;;8.73;1.75;;;;;;;;;;5052550;28;20045;-71
2022/02/23 10:34:37;;;;;;;3.13;1.00;;;;;;;;;;5052324;28;20431;-68
2022/02/23 10:37:13;;;;;;;4.45;1.38;;;;;;;;;;5051784;28;20036;-68
2022/02/23 10:39:45;;;;;;;5.22;1.35;;;;;;;;;;5052531;28;20044;-69
2022/02/23 10:42:14;;;;;;;4.72;1.23;;;;;;;;;;5050965;28;20075;-72
2022/02/23 10:44:43;;;;;;;4.47;1.30;;;;;;;;;;5052016;28;20041;-68
2022/02/23 10:47:32;;;;;;;2.90;1.30;;;;;;;;;;5052403;28;20055;-71
2022/02/23 10:50:12;;;;;;;4.75;1.52;;;;;;;;;;5052333;28;20081;-68
2022/02/23 10:52:41;;;;;;;6.15;1.42;;;;;;;;;;5052434;28;20132;-71
2022/02/23 10:55:11;;;;;;;3.30;1.42;;;;;;;;;;5052453;28;20041;-71
2022/02/23 10:57:43;;;;;;;8.63;1.67;;;;;;;;;;5051128;28;20049;-69
2022/02/23 11:00:14;;;;;;;6.28;1.60;;;;;;;;;;5052768;28;20163;-71
2022/02/23 11:02:42;;;;;;;5.00;1.33;;;;;;;;;;5052338;28;20038;-68
2022/02/23 11:05:09;;;;;;;3.15;1.20;;;;;;;;;;5052234;28;20041;-74
2022/02/23 11:07:37;;;;;;;8.57;1.38;;;;;;;;;;5051004;28;20041;-71
2022/02/23 11:10:05;;;;;;;6.25;1.33;;;;;;;;;;5050757;28;20041;-75
2022/02/23 11:12:33;;;;;;;5.50;1.40;;;;;;;;;;5054231;28;20511;-73
2022/02/23 11:15:02;;;;;;;4.13;1.20;;;;;;;;;;5056216;28;20119;-72
2022/02/23 11:17:30;;;;;;;3.72;1.15;;;;;;;;;;5055605;28;20055;-73
2022/02/23 11:19:58;;;;;;;4.38;1.70;;;;;;;;;;5054870;28;20049;-69
2022/02/23 11:22:26;;;;;;;4.75;1.77;;;;;;;;;;5055399;28;20045;-68
2022/02/23 11:24:53;;;;;;;6.82;1.40;;;;;;;;;;5055683;28;20041;-72
2022/02/23 11:27:24;;;;;;;5.03;1.60;;;;;;;;;;5055486;28;20072;-72
2022/02/23 11:30:00;;;;;;;5.28;1.75;;;;;;;;;;5055489;28;20048;-72
2022/02/23 11:32:31;;;;;;;5.55;1.60;;;;;;;;;;5055728;28;20465;-69
2022/02/23 11:34:59;;;;;;;3.75;1.08;;;;;;;;;;5055528;28;20137;-68
2022/02/23 11:37:30;;;;;;;5.93;1.73;;;;;;;;;;5055652;28;20484;-69
2022/02/23 11:39:57;;;;;;;5.07;1.88;;;;;;;;;;5055716;28;20428;-69
2022/02/23 11:42:25;;;;;;;4.68;1.50;;;;;;;;;;5054156;28;20045;-72
2022/02/23 11:45:05;;;;;;;4.72;1.77;;;;;;;;;;5055227;28;20086;-72
2022/02/23 11:47:47;;;;;;;5.00;1.50;;;;;;;;;;5055385;28;20094;-69
2022/02/23 11:50:19;;;;;;;9.10;1.92;;;;;;;;;;5055534;28;20547;-69
2022/02/23 11:52:47;;;;;;;3.58;1.55;;;;;;;;;;5055735;28;20049;-71
2022/02/23 11:55:15;;;;;;;5.18;1.70;;;;;;;;;;5055202;28;20040;-72
2022/02/23 11:57:43;;;;;;;4.28;1.42;;;;;;;;;;5055065;28;20065;-69
2022/02/23 12:00:13;;;;;;;5.45;1.70;;;;;;;;;;5055269;28;20036;-72
2022/02/23 12:02:41;;;;;;;4.45;1.63;;;;;;;;;;5054955;28;20044;-72
2022/02/23 12:05:10;;;;;;;5.00;1.73;;;;;;;;;;5054855;28;20041;-70
2022/02/23 12:07:47;;;;;;;7.10;1.70;;;;;;;;;;5054946;28;20091;-73
2022/02/23 12:10:27;;;;;;;6.50;1.57;;;;;;;;;;5054163;28;20554;-72
2022/02/23 12:12:55;;;;;;;4.82;1.40;;;;;;;;;;5054779;28;20091;-72
2022/02/23 12:15:40;;;;;;;3.53;1.83;;;;;;;;;;5054922;28;20037;-69
2022/02/23 12:18:19;;;;;;;3.30;1.23;;;;;;;;;;5054740;28;20045;-70
2022/02/23 12:20:47;;;;;;;8.63;1.45;;;;;;;;;;5054506;28;20094;-73
2022/02/23 12:23:17;;;;;;;3.45;1.35;;;;;;;;;;5053869;28;20040;-70
2022/02/23 12:25:51;;;;;;;8.32;1.50;;;;;;;;;;5054793;28;20045;-69
2022/02/23 12:28:20;;;;;;;6.93;1.80;;;;;;;;;;5054238;28;20119;-72
2022/02/23 12:30:52;;;;;;;7.95;1.60;;;;;;;;;;5054540;28;20049;-71
2022/02/23 12:33:22;;;;;;;;;;;;;;;;;;5036665;28;20148;-69
2022/02/23 12:35:50;;;;;;;2.35;1.27;;;;;;;;;;5054567;28;19925;-69
2022/02/23 12:38:22;;;;;;;4.13;1.38;;;;;;;;;;5054213;28;20052;-72
2022/02/23 12:40:51;;;;;;;3.17;1.50;;;;;;;;;;5053061;28;20052;-74
2022/02/23 12:43:19;;;;;;;3.38;1.42;;;;;;;;;;5054316;28;20128;-72
2022/02/23 12:45:54;;;;;;;3.33;1.25;;;;;;;;;;5053886;28;20041;-72
2022/02/23 12:48:33;;;;;;;6.53;1.67;;;;;;;;;;5054150;28;20407;-72
2022/02/23 12:51:01;;;;;;;4.82;1.45;;;;;;;;;;5054196;28;20043;-73
2022/02/23 12:53:32;;;;;;;3.63;1.30;;;;;;;;;;5054017;28;20492;-74
2022/02/23 12:56:19;;;;;;;3.90;1.20;;;;;;;;;;5054052;28;20504;-70
2022/02/23 12:58:47;;;;;;;3.33;1.55;;;;;;;;;;5053538;28;20064;-69
2022/02/23 13:01:21;;;;;;;5.35;1.70;;;;;;;;;;5054172;28;20037;-70
2022/02/23 13:03:49;;;;;;;3.97;1.58;;;;;;;;;;5053752;28;20052;-72
2022/02/23 13:06:17;;;;;;;3.97;1.40;;;;;;;;;;5053334;28;20111;-72
2022/02/23 13:08:49;;;;;;;3.10;1.40;;;;;;;;;;5054053;28;20081;-72
2022/02/23 13:11:29;;;;;;;5.03;1.90;;;;;;;;;;5053876;28;20064;-75
2022/02/23 13:14:00;;;;;;;7.43;1.80;;;;;;;;;;5048463;28;20091;-70
2022/02/23 13:16:28;;;;;;;4.53;1.60;;;;;;;;;;5043256;28;20041;-72
2022/02/23 13:19:07;;;;;;;5.30;1.55;;;;;;;;;;5043004;28;20049;-70
2022/02/23 13:21:42;;;;;;;2.88;1.30;;;;;;;;;;5042810;28;20076;-73
2022/02/23 13:24:11;;;;;;;2.83;1.20;;;;;;;;;;5042925;28;20041;-69
2022/02/23 13:26:40;;;;;;;7.13;1.70;;;;;;;;;;5047372;28;20049;-69
2022/02/23 13:29:09;;;;;;;3.90;1.63;;;;;;;;;;5044244;28;20433;-73
2022/02/23 13:31:44;;;;;;;3.83;1.30;;;;;;;;;;5042491;28;20414;-69
2022/02/23 13:34:16;;;;;;;7.55;1.83;;;;;;;;;;5040902;28;20385;-73
2022/02/23 13:36:44;;;;;;;4.95;1.45;;;;;;;;;;5040073;28;20037;-72
2022/02/23 13:39:19;;;;;;;5.03;2.17;;;;;;;;;;5042595;28;20046;-70
2022/02/23 13:41:54;;;;;;;3.55;1.27;;;;;;;;;;5024864;28;20112;-69
2022/02/23 13:44:23;;;;;;;6.70;1.70;;;;;;;;;;5042784;28;20043;-69
2022/02/23 13:46:57;;;;;;;3.90;1.75;;;;;;;;;;5040986;28;20043;-69
2022/02/23 13:49:25;;;;;;;4.60;1.55;;;;;;;;;;5041909;28;20116;-73
2022/02/23 13:51:55;;;;;;;5.10;1.50;;;;;;;;;;5040934;28;20506;-73
2022/02/23 13:54:23;;;;;;;6.75;1.83;;;;;;;;;;5044510;28;20378;-73
2022/02/23 13:56:52;;;;;;;6.35;1.25;;;;;;;;;;5038915;28;20190;-73
2022/02/23 13:59:43;;;;;;;3.38;1.55;;;;;;;;;;5039380;28;20523;-70
2022/02/23 14:02:13;;;;;;;4.78;1.42;;;;;;;;;;5036624;28;20049;-72
2022/02/23 14:04:42;;;;;;;4.63;1.60;;;;;;;;;;5031387;28;20480;-69
2022/02/23 14:07:12;;;;;;;5.82;1.23;;;;;;;;;;5038723;28;20040;-70
2022/02/23 14:09:40;;;;;;;3.80;0.93;;;;;;;;;;5042422;28;20465;-69
2022/02/23 14:12:10;;;;;;;2.45;1.25;;;;;;;;;;5052211;28;20068;-73
2022/02/23 14:14:45;;;;;;;4.38;1.75;;;;;;;;;;5052097;28;20071;-73
2022/02/23 14:17:15;;;;;;;4.18;1.40;;;;;;;;;;5052063;28;20029;-69
2022/02/23 14:19:44;;;;;;;4.18;1.02;;;;;;;;;;5051350;28;20041;-70
2022/02/23 14:22:16;;;;;;;4.28;0.93;;;;;;;;;;5052461;28;20519;-69
2022/02/23 14:24:43;;;;;;;8.68;1.70;;;;;;;;;;5053137;28;20400;-73
2022/02/23 14:27:15;;;;;;;6.10;1.20;;;;;;;;;;5052731;28;20081;-69
2022/02/23 14:29:48;;;;;;;2.25;1.00;;;;;;;;;;5052429;28;20128;-72
2022/02/23 14:32:18;;;;;;;5.18;1.40;;;;;;;;;;5052873;28;20442;-72
2022/02/23 14:34:53;;;;;;;4.15;1.38;;;;;;;;;;5052665;28;20041;-69
2022/02/23 14:37:20;;;;;;;5.57;1.27;;;;;;;;;;5035355;28;20115;-72
2022/02/23 14:39:48;;;;;;;4.95;1.40;;;;;;;;;;5052623;28;20045;-72
2022/02/23 14:42:15;;;;;;;4.22;1.02;;;;;;;;;;5052498;28;20044;-72
2022/02/23 14:44:44;;;;;;;3.08;1.38;;;;;;;;;;5051600;28;20043;-70
2022/02/23 14:47:12;;;;;;;7.30;1.30;;;;;;;;;;5055617;28;20051;-69
2022/02/23 14:49:41;;;;;;;1.27;0.82;;;;;;;;;;5056427;28;20068;-70
2022/02/23 14:52:10;;;;;;;2.78;1.00;;;;;;;;;;5056760;28;20047;-70
2022/02/23 14:54:37;;;;;;;4.40;1.50;;;;;;;;;;5055570;28;20060;-69
2022/02/23 14:57:08;;;;;;;3.17;1.38;;;;;;;;;;5056396;28;20068;-70
2022/02/23 14:59:39;;;;;;;6.47;1.58;;;;;;;;;;5055490;28;20049;-73